Time;durP1;ratioP1;P1;durP2;ratioP2;P2;SDS_P1;SDS_P2;PMS_P1;PMS_P2;Temp;Humidity;BMP_temperature;BMP_pressure;BME280_temperature;BME280_humidity;BME280_pressure;Samples;Min_cycle;Max_cycle;Signal;HPM_P1;HPM_P2
2022/09/06 00:01:18;;;;;;;10.23;6.30;;;22.30;97.70;;;;;;5068539;28;20040;-79
2022/09/06 00:03:44;;;;;;;12.35;6.38;;;22.30;97.60;;;;;;5072736;28;20490;-79
2022/09/06 00:06:12;;;;;;;13.18;6.55;;;22.30;97.80;;;;;;5053585;28;20090;-79
2022/09/06 00:08:39;;;;;;;12.35;7.07;;;22.30;97.90;;;;;;5050550;28;20056;-80
2022/09/06 00:11:05;;;;;;;12.40;6.82;;;22.20;98.10;;;;;;5050298;28;20098;-79
2022/09/06 00:13:31;;;;;;;12.43;6.13;;;22.20;98.30;;;;;;5050201;28;20419;-80
2022/09/06 00:16:04;;;;;;;10.55;5.68;;;22.20;98.60;;;;;;5049969;28;20045;-80
2022/09/06 00:18:30;;;;;;;9.05;5.28;;;22.10;98.50;;;;;;5068652;28;20040;-80
2022/09/06 00:20:55;;;;;;;10.25;5.00;;;22.10;98.70;;;;;;5068355;28;20048;-80
2022/09/06 00:23:21;;;;;;;11.38;4.80;;;22.00;98.70;;;;;;5053240;28;20433;-80
2022/09/06 00:25:46;;;;;;;6.03;5.10;;;22.00;98.80;;;;;;5054860;28;20050;-81
2022/09/06 00:28:12;;;;;;;6.50;4.97;;;22.00;98.90;;;;;;5072121;28;20053;-80
2022/09/06 00:30:37;;;;;;;6.78;4.85;;;22.00;99.10;;;;;;5068686;28;20049;-80
2022/09/06 00:33:03;;;;;;;7.25;5.32;;;22.00;99.20;;;;;;5049363;28;20451;-78
2022/09/06 00:35:29;;;;;;;8.18;5.43;;;21.90;99.10;;;;;;5051028;28;20044;-80
2022/09/06 00:37:57;;;;;;;6.75;5.07;;;21.90;99.20;;;;;;5067694;28;20040;-80
2022/09/06 00:40:22;;;;;;;6.28;5.20;;;21.90;99.30;;;;;;5068408;28;20041;-80
2022/09/06 00:42:48;;;;;;;8.95;5.15;;;21.90;99.30;;;;;;5068068;28;20409;-79
2022/09/06 00:45:14;;;;;;;8.32;5.80;;;21.90;99.40;;;;;;5067797;28;20127;-80
2022/09/06 00:47:42;;;;;;;9.93;5.65;;;21.90;99.50;;;;;;5068351;28;20131;-80
2022/09/06 00:50:11;;;;;;;9.20;5.82;;;21.90;99.60;;;;;;5049903;28;20051;-80
2022/09/06 00:52:37;;;;;;;8.75;5.75;;;21.90;99.60;;;;;;5068539;28;20076;-80
2022/09/06 00:55:04;;;;;;;10.05;5.50;;;21.90;99.70;;;;;;5048874;28;20049;-80
2022/09/06 00:57:31;;;;;;;6.97;5.32;;;21.90;99.90;;;;;;5050833;28;20117;-80
2022/09/06 00:59:57;;;;;;;8.43;5.13;;;21.90;99.90;;;;;;5068202;28;20056;-80
2022/09/06 01:02:23;;;;;;;7.97;5.30;;;21.80;99.90;;;;;;5071915;28;20068;-80
2022/09/06 01:04:50;;;;;;;8.85;5.50;;;21.80;99.90;;;;;;5072232;28;20084;-79
2022/09/06 01:07:41;;;;;;;12.90;5.80;;;21.80;99.90;;;;;;5071838;28;20388;-80
2022/09/06 01:10:31;;;;;;;7.25;5.88;;;21.70;99.90;;;;;;5071583;28;20468;-80
2022/09/06 01:13:17;;;;;;;9.00;6.20;;;21.70;99.90;;;;;;5053542;28;20127;-80
2022/09/06 01:15:48;;;;;;;8.48;5.78;;;21.70;99.90;;;;;;5070490;28;20051;-80
2022/09/06 01:18:37;;;;;;;9.70;5.20;;;21.70;99.90;;;;;;5069946;28;20052;-80
2022/09/06 01:21:23;;;;;;;6.47;5.65;;;21.70;99.90;;;;;;5028640;28;20056;-80
2022/09/06 01:24:12;;;;;;;7.53;5.50;;;21.70;99.90;;;;;;5069728;28;20602;-80
2022/09/06 01:27:23;;;;;;;8.88;5.80;;;21.80;99.90;;;;;;5070674;28;20086;-80
2022/09/06 01:30:00;;;;;;;9.95;5.78;;;21.70;99.90;;;;;;5019934;28;20156;-80
2022/09/06 01:33:04;;;;;;;8.88;6.07;;;21.70;99.90;;;;;;5069763;28;20048;-80
2022/09/06 01:35:35;;;;;;;7.03;5.68;;;21.70;99.90;;;;;;5069834;28;20079;-79
2022/09/06 01:38:02;;;;;;;6.75;5.70;;;21.60;99.90;;;;;;5068696;28;20033;-80
2022/09/06 01:40:27;;;;;;;9.18;5.80;;;21.60;99.90;;;;;;5069790;28;20060;-80
2022/09/06 01:42:54;;;;;;;7.65;5.95;;;21.50;99.90;;;;;;5068792;28;20044;-80
2022/09/06 01:45:29;;;;;;;11.30;5.90;;;21.60;99.90;;;;;;5069806;28;20542;-80
2022/09/06 01:48:16;;;;;;;6.80;5.90;;;21.60;99.90;;;;;;5069452;28;20051;-80
2022/09/06 01:50:54;;;;;;;6.95;5.68;;;21.50;99.90;;;;;;5069094;28;20091;-80
2022/09/06 01:53:55;;;;;;;6.57;5.88;;;21.50;99.90;;;;;;5070876;28;20452;-79
2022/09/06 01:56:59;;;;;;;7.35;5.72;;;21.50;99.90;;;;;;5054584;28;20049;-79
2022/09/06 01:59:32;;;;;;;7.32;5.85;;;21.50;99.90;;;;;;5038155;28;20056;-80
2022/09/06 02:02:06;;;;;;;10.45;5.63;;;21.40;99.90;;;;;;5069001;28;20036;-79
2022/09/06 02:04:49;;;;;;;9.02;5.68;;;21.40;99.90;;;;;;5050987;28;20109;-80
2022/09/06 02:07:20;;;;;;;6.95;5.90;;;21.40;99.90;;;;;;5051392;28;20057;-80
2022/09/06 02:09:52;;;;;;;7.78;5.82;;;21.30;99.90;;;;;;5069363;28;20087;-80
2022/09/06 02:12:21;;;;;;;8.75;6.28;;;21.30;99.90;;;;;;5068085;28;20040;-78
2022/09/06 02:15:01;;;;;;;6.88;6.18;;;21.30;99.90;;;;;;5069329;28;20174;-80
2022/09/06 02:17:32;;;;;;;9.23;6.38;;;21.30;99.90;;;;;;5069526;28;20067;-80
2022/09/06 02:20:02;;;;;;;8.70;5.85;;;21.20;99.90;;;;;;5068100;28;20071;-80
2022/09/06 02:22:31;;;;;;;7.35;6.55;;;21.10;99.90;;;;;;5069448;28;20040;-80
2022/09/06 02:24:59;;;;;;;9.68;6.50;;;21.10;99.90;;;;;;5068819;28;20332;-80
2022/09/06 02:27:24;;;;;;;;;;;21.10;99.90;;;;;;5069104;28;20111;-80
2022/09/06 02:29:50;;;;;;;9.50;6.60;;;21.00;99.90;;;;;;5051017;28;20353;-79
2022/09/06 02:32:22;;;;;;;7.15;6.40;;;21.00;99.90;;;;;;5068079;28;20209;-80
2022/09/06 02:34:54;;;;;;;9.82;5.75;;;21.00;99.90;;;;;;5051155;28;20102;-79
2022/09/06 02:37:21;;;;;;;9.68;6.40;;;21.00;99.90;;;;;;5051364;28;20040;-79
2022/09/06 02:39:47;;;;;;;8.98;6.78;;;21.00;99.90;;;;;;5068239;28;20140;-79
2022/09/06 02:42:15;;;;;;;9.25;6.43;;;20.90;99.90;;;;;;5068286;28;20501;-79
2022/09/06 02:44:42;;;;;;;7.03;6.30;;;20.90;99.90;;;;;;5050936;28;20494;-79
2022/09/06 02:47:07;;;;;;;8.73;6.15;;;20.80;99.90;;;;;;5067354;28;20080;-79
2022/09/06 02:49:33;;;;;;;7.30;6.32;;;20.90;99.90;;;;;;5067770;28;20123;-78
2022/09/06 02:51:59;;;;;;;9.07;6.55;;;20.80;99.90;;;;;;5050312;28;20548;-79
2022/09/06 02:54:25;;;;;;;8.75;6.70;;;20.80;99.90;;;;;;5068046;28;20037;-78
2022/09/06 02:56:50;;;;;;;8.55;6.30;;;20.80;99.90;;;;;;5050707;28;20083;-78
2022/09/06 02:59:16;;;;;;;8.38;6.35;;;20.70;99.90;;;;;;5050026;28;20047;-78
2022/09/06 03:01:42;;;;;;;7.05;6.30;;;20.70;99.90;;;;;;5067558;28;20040;-79
2022/09/06 03:04:07;;;;;;;7.07;6.38;;;20.70;99.90;;;;;;5067884;28;20410;-78
2022/09/06 03:06:33;;;;;;;9.13;6.72;;;20.60;99.90;;;;;;5068418;28;20396;-78
2022/09/06 03:08:59;;;;;;;9.70;7.20;;;20.70;99.90;;;;;;5049168;28;20090;-79
2022/09/06 03:11:26;;;;;;;8.98;6.45;;;20.60;99.90;;;;;;5067675;28;20491;-79
2022/09/06 03:13:52;;;;;;;8.10;7.30;;;20.60;99.90;;;;;;5067913;28;20124;-79
2022/09/06 03:16:18;;;;;;;10.63;6.85;;;20.60;99.90;;;;;;5049169;28;20119;-78
2022/09/06 03:18:45;;;;;;;10.27;7.10;;;20.60;99.90;;;;;;5068256;28;20044;-79
2022/09/06 03:21:11;;;;;;;8.98;7.15;;;20.60;99.90;;;;;;5067170;28;20040;-79
2022/09/06 03:23:38;;;;;;;8.80;7.03;;;20.60;99.90;;;;;;5065979;28;20522;-78
2022/09/06 03:26:05;;;;;;;10.70;6.95;;;20.60;99.90;;;;;;5049846;28;20432;-78
2022/09/06 03:28:31;;;;;;;7.28;6.55;;;20.60;99.90;;;;;;5066536;28;20461;-80
2022/09/06 03:30:56;;;;;;;7.68;6.97;;;20.60;99.90;;;;;;5067419;28;20040;-79
2022/09/06 03:33:22;;;;;;;8.98;7.00;;;20.60;99.90;;;;;;5049792;28;20461;-80
2022/09/06 03:35:59;;;;;;;8.02;7.30;;;20.50;99.90;;;;;;5066852;28;20048;-81
2022/09/06 03:38:26;;;;;;;10.10;7.22;;;20.50;99.90;;;;;;5067836;28;20080;-79
2022/09/06 03:40:52;;;;;;;;;;;20.50;99.90;;;;;;5067541;28;20041;-79
2022/09/06 03:43:20;;;;;;;10.00;7.13;;;20.50;99.90;;;;;;5066758;28;19966;-79
2022/09/06 03:45:47;;;;;;;8.02;7.22;;;20.40;99.90;;;;;;5053246;28;20033;-77
2022/09/06 03:48:14;;;;;;;8.85;7.15;;;20.40;99.90;;;;;;5067755;28;20113;-79
2022/09/06 03:50:47;;;;;;;11.18;7.80;;;20.40;99.90;;;;;;5067113;28;20044;-79
2022/09/06 03:53:13;;;;;;;8.93;8.02;;;20.40;99.90;;;;;;5049216;28;20052;-79
2022/09/06 03:55:50;;;;;;;7.95;7.15;;;20.40;99.90;;;;;;5050095;28;20097;-79
2022/09/06 03:58:18;;;;;;;10.43;7.47;;;20.40;99.90;;;;;;5065599;28;20068;-79
2022/09/06 04:00:43;;;;;;;;;;;20.50;99.90;;;;;;5049998;28;20044;-79
2022/09/06 04:03:10;;;;;;;8.93;6.97;;;20.40;99.90;;;;;;5048640;28;19931;-79
2022/09/06 04:05:36;;;;;;;10.23;7.65;;;20.40;99.90;;;;;;5066390;28;20040;-79
2022/09/06 04:08:02;;;;;;;8.27;7.35;;;20.50;99.90;;;;;;5066357;28;20447;-78
2022/09/06 04:10:28;;;;;;;8.93;7.40;;;20.50;99.90;;;;;;5067363;28;20264;-79
2022/09/06 04:13:06;;;;;;;8.55;7.63;;;20.50;99.90;;;;;;5066062;28;20083;-79
2022/09/06 04:15:35;;;;;;;10.10;7.63;;;20.40;99.90;;;;;;5067538;28;20094;-79
2022/09/06 04:18:12;;;;;;;8.13;7.32;;;20.50;99.90;;;;;;5048632;28;20648;-79
2022/09/06 04:20:51;;;;;;;9.27;7.70;;;20.50;99.90;;;;;;5067541;28;20040;-79
2022/09/06 04:23:17;;;;;;;9.57;7.75;;;20.50;99.90;;;;;;5067405;28;20565;-79
2022/09/06 04:25:50;;;;;;;11.90;7.45;;;20.50;99.90;;;;;;5067177;28;20041;-80
2022/09/06 04:28:20;;;;;;;10.50;7.70;;;20.50;99.90;;;;;;5067551;28;20573;-80
2022/09/06 04:30:59;;;;;;;9.77;7.47;;;20.50;99.90;;;;;;5065724;28;20049;-80
2022/09/06 04:33:26;;;;;;;9.97;7.87;;;20.50;99.90;;;;;;5047985;28;20044;-80
2022/09/06 04:35:58;;;;;;;8.90;7.75;;;20.50;99.90;;;;;;5070772;28;20040;-80
2022/09/06 04:38:26;;;;;;;9.20;7.78;;;20.50;99.90;;;;;;5055416;28;20507;-80
2022/09/06 04:40:52;;;;;;;11.38;7.78;;;20.50;99.90;;;;;;5054760;28;20090;-80
2022/09/06 04:43:18;;;;;;;8.70;7.90;;;20.50;99.90;;;;;;5073461;28;20076;-80
2022/09/06 04:45:44;;;;;;;8.68;7.78;;;20.50;99.90;;;;;;5072883;28;20202;-80
2022/09/06 04:48:10;;;;;;;9.63;8.32;;;20.40;99.90;;;;;;5072963;28;20109;-80
2022/09/06 04:50:36;;;;;;;10.77;7.78;;;20.40;99.90;;;;;;5055172;28;20029;-80
2022/09/06 04:53:03;;;;;;;10.23;7.80;;;20.40;99.90;;;;;;5054170;28;20811;-80
2022/09/06 04:55:30;;;;;;;8.70;7.80;;;20.40;99.90;;;;;;5074053;28;20083;-80
2022/09/06 04:57:59;;;;;;;8.48;7.68;;;20.40;99.90;;;;;;5073024;28;20044;-80
2022/09/06 05:00:26;;;;;;;8.20;7.40;;;20.40;99.90;;;;;;5055803;28;20044;-80
2022/09/06 05:02:52;;;;;;;10.05;8.55;;;20.40;99.90;;;;;;5075573;28;20514;-80
2022/09/06 05:05:18;;;;;;;9.60;8.32;;;20.40;99.90;;;;;;5060437;28;20041;-81
2022/09/06 05:07:43;;;;;;;11.43;7.90;;;20.40;99.90;;;;;;5059460;28;20125;-80
2022/09/06 05:10:09;;;;;;;11.60;8.18;;;20.40;99.90;;;;;;5058713;28;20040;-80
2022/09/06 05:12:35;;;;;;;10.88;8.15;;;20.40;99.90;;;;;;5075243;28;20048;-79
2022/09/06 05:15:01;;;;;;;10.07;8.63;;;20.30;99.90;;;;;;5057178;28;20041;-79
2022/09/06 05:17:27;;;;;;;24.52;8.70;;;20.30;99.90;;;;;;5074845;28;20071;-80
2022/09/06 05:19:52;;;;;;;10.02;8.40;;;20.30;99.90;;;;;;5074142;28;20562;-79
2022/09/06 05:22:18;;;;;;;10.20;8.55;;;20.30;99.90;;;;;;5073432;28;20044;-79
2022/09/06 05:24:45;;;;;;;12.68;8.70;;;20.30;99.90;;;;;;5074243;28;20468;-80
2022/09/06 05:27:11;;;;;;;9.32;8.45;;;20.20;99.90;;;;;;5055493;28;20493;-80
2022/09/06 05:29:44;;;;;;;13.27;9.00;;;20.30;99.90;;;;;;5055087;28;20787;-80
2022/09/06 05:32:10;;;;;;;9.90;8.90;;;20.30;99.90;;;;;;5073308;28;20109;-80
2022/09/06 05:34:36;;;;;;;9.73;8.80;;;20.30;99.90;;;;;;5073325;28;20112;-80
2022/09/06 05:37:01;;;;;;;10.52;9.45;;;20.20;99.90;;;;;;5055504;28;20475;-78
2022/09/06 05:39:27;;;;;;;11.27;9.77;;;20.20;99.90;;;;;;5056783;28;20063;-78
2022/09/06 05:41:53;;;;;;;10.35;9.35;;;20.20;99.90;;;;;;5054723;28;20446;-79
2022/09/06 05:44:19;;;;;;;13.95;10.38;;;20.20;99.90;;;;;;5072456;28;20068;-79
2022/09/06 05:46:53;;;;;;;12.70;10.30;;;20.10;99.90;;;;;;5071299;28;20109;-79
2022/09/06 05:49:19;;;;;;;11.65;9.38;;;20.10;99.90;;;;;;5069449;28;20041;-79
2022/09/06 05:51:49;;;;;;;11.55;9.70;;;20.10;99.90;;;;;;5069669;28;20122;-79
2022/09/06 05:54:15;;;;;;;12.48;10.38;;;20.00;99.90;;;;;;5051449;28;20079;-79
2022/09/06 05:56:41;;;;;;;11.38;10.07;;;20.10;99.90;;;;;;5051219;28;20071;-79
2022/09/06 05:59:06;;;;;;;14.75;10.93;;;20.00;99.90;;;;;;5069585;28;20040;-79
2022/09/06 06:01:32;;;;;;;11.57;10.48;;;20.00;99.90;;;;;;5051781;28;20089;-79
2022/09/06 06:04:00;;;;;;;11.38;10.13;;;20.00;99.90;;;;;;5050542;28;20053;-79
2022/09/06 06:06:30;;;;;;;12.18;10.43;;;20.00;99.90;;;;;;5069219;28;20044;-78
2022/09/06 06:08:55;;;;;;;12.55;11.25;;;20.00;99.90;;;;;;5068545;28;20584;-79
2022/09/06 06:11:22;;;;;;;12.30;11.10;;;20.00;99.90;;;;;;5067937;28;20051;-79
2022/09/06 06:13:48;;;;;;;14.40;11.02;;;20.00;99.90;;;;;;5068850;28;20048;-80
2022/09/06 06:16:16;;;;;;;11.73;10.57;;;20.00;99.90;;;;;;5068948;28;20125;-79
2022/09/06 06:18:43;;;;;;;13.88;11.48;;;20.00;99.90;;;;;;5068916;28;20044;-79
2022/09/06 06:21:11;;;;;;;14.55;10.68;;;20.00;99.90;;;;;;5068634;28;20048;-79
2022/09/06 06:23:38;;;;;;;13.13;11.05;;;20.10;99.90;;;;;;5051225;28;20055;-79
2022/09/06 06:26:11;;;;;;;13.52;11.05;;;20.10;99.90;;;;;;5049993;28;20047;-79
2022/09/06 06:28:38;;;;;;;14.05;11.80;;;20.00;99.90;;;;;;5069589;28;20040;-79
2022/09/06 06:31:09;;;;;;;12.85;11.63;;;20.00;99.90;;;;;;5050286;28;20127;-80
2022/09/06 06:33:38;;;;;;;14.90;11.95;;;20.00;99.90;;;;;;5050752;28;20153;-79
2022/09/06 06:36:12;;;;;;;13.65;11.93;;;20.10;99.90;;;;;;5068527;28;20048;-79
2022/09/06 06:38:39;;;;;;;14.38;11.90;;;20.00;99.90;;;;;;5067994;28;20117;-80
2022/09/06 06:41:06;;;;;;;15.52;12.25;;;20.00;99.90;;;;;;5068509;28;20087;-79
2022/09/06 06:43:36;;;;;;;;;;;19.90;99.90;;;;;;5069317;28;20049;-79
2022/09/06 06:46:07;;;;;;;16.10;13.35;;;19.90;99.90;;;;;;5067554;28;19943;-79
2022/09/06 06:48:34;;;;;;;14.73;11.95;;;19.90;99.90;;;;;;5050909;28;20087;-79
2022/09/06 06:50:59;;;;;;;13.55;12.30;;;19.80;99.90;;;;;;5068111;28;20519;-79
2022/09/06 06:53:25;;;;;;;14.15;12.85;;;19.80;99.90;;;;;;5067920;28;20051;-78
2022/09/06 06:56:29;;;;;;;13.52;12.27;;;19.80;99.90;;;;;;5068429;28;20591;-79
2022/09/06 06:58:58;;;;;;;14.15;12.75;;;19.90;99.90;;;;;;5049372;28;20502;-79
2022/09/06 07:01:25;;;;;;;14.48;12.98;;;19.80;99.90;;;;;;5049953;28;20048;-79
2022/09/06 07:03:51;;;;;;;15.20;13.60;;;19.90;99.90;;;;;;5067630;28;20052;-79
2022/09/06 07:06:18;;;;;;;15.05;13.55;;;19.90;99.90;;;;;;5068341;28;20056;-79
2022/09/06 07:08:43;;;;;;;14.73;13.15;;;19.80;99.90;;;;;;5064684;23;20492;-79
2022/09/06 07:11:12;;;;;;;14.57;13.18;;;19.80;99.90;;;;;;5088205;28;20054;-79
2022/09/06 07:13:38;;;;;;;15.27;13.68;;;19.90;99.90;;;;;;5087566;28;20476;-79
2022/09/06 07:16:16;;;;;;;16.23;14.55;;;19.90;99.90;;;;;;5069387;28;20036;-79
2022/09/06 07:18:42;;;;;;;15.52;13.90;;;19.90;99.90;;;;;;5088403;28;20735;-79
2022/09/06 07:21:13;;;;;;;15.75;14.23;;;19.90;99.90;;;;;;5068802;28;20048;-79
2022/09/06 07:23:39;;;;;;;15.93;14.23;;;19.90;99.90;;;;;;5088366;28;20070;-79
2022/09/06 07:26:05;;;;;;;15.70;14.13;;;19.90;99.90;;;;;;5087742;28;20032;-79
2022/09/06 07:28:31;;;;;;;17.23;15.20;;;19.90;99.90;;;;;;5070506;28;20048;-79
2022/09/06 07:30:59;;;;;;;18.30;15.38;;;20.00;99.90;;;;;;5087589;28;20050;-79
2022/09/06 07:33:25;;;;;;;17.83;15.95;;;20.00;99.90;;;;;;5070088;28;20043;-79
2022/09/06 07:36:01;;;;;;;17.20;15.52;;;20.00;99.90;;;;;;5087128;28;20040;-79
2022/09/06 07:38:31;;;;;;;17.98;16.35;;;20.00;99.90;;;;;;5069575;28;20552;-79
2022/09/06 07:40:59;;;;;;;17.13;15.55;;;20.10;99.90;;;;;;5069248;28;20052;-79
2022/09/06 07:43:26;;;;;;;17.55;15.80;;;20.10;99.90;;;;;;5069248;28;20067;-79
2022/09/06 07:45:59;;;;;;;17.02;15.43;;;20.10;99.90;;;;;;5069563;28;20048;-79
2022/09/06 07:48:26;;;;;;;17.75;16.08;;;20.10;99.90;;;;;;5087674;28;20517;-79
2022/09/06 07:50:55;;;;;;;;;;;20.20;99.90;;;;;;5068687;28;20048;-79
2022/09/06 07:53:20;;;;;;;18.05;16.23;;;20.10;99.90;;;;;;5069389;28;19920;-79
2022/09/06 07:55:46;;;;;;;17.90;16.20;;;20.10;99.90;;;;;;5087082;28;20184;-78
2022/09/06 07:58:12;;;;;;;17.55;15.77;;;20.20;99.90;;;;;;5068873;28;20046;-79
2022/09/06 08:00:39;;;;;;;18.52;16.63;;;20.20;99.90;;;;;;5069749;28;20056;-79
2022/09/06 08:03:05;;;;;;;17.80;16.20;;;20.20;99.90;;;;;;5067985;28;20136;-79
2022/09/06 08:05:31;;;;;;;19.35;17.48;;;20.20;99.90;;;;;;5087193;28;20048;-78
2022/09/06 08:07:57;;;;;;;18.45;16.55;;;20.30;99.90;;;;;;5086714;28;20055;-78
2022/09/06 08:10:22;;;;;;;18.10;16.50;;;20.30;99.90;;;;;;5086462;28;20056;-79
2022/09/06 08:12:52;;;;;;;17.83;16.33;;;20.40;99.90;;;;;;5086852;28;20052;-78
2022/09/06 08:15:20;;;;;;;18.90;17.00;;;20.50;99.90;;;;;;5069196;28;20105;-79
2022/09/06 08:17:50;;;;;;;18.52;16.77;;;20.60;99.90;;;;;;5068630;28;20036;-79
2022/09/06 08:20:16;;;;;;;18.35;16.65;;;20.70;99.90;;;;;;5068630;28;20131;-79
2022/09/06 08:22:42;;;;;;;18.17;16.48;;;20.90;99.90;;;;;;5087644;28;20072;-79
2022/09/06 08:25:09;;;;;;;19.33;17.40;;;21.00;99.90;;;;;;5068101;28;20056;-82
2022/09/06 08:27:35;;;;;;;18.90;16.90;;;21.10;99.90;;;;;;5087200;28;20054;-81
2022/09/06 08:30:01;;;;;;;17.63;16.10;;;21.30;99.90;;;;;;5078222;28;20114;-81
2022/09/06 08:32:27;;;;;;;19.50;16.35;;;21.40;99.90;;;;;;5086495;28;20044;-80
2022/09/06 08:34:52;;;;;;;19.73;17.83;;;21.40;99.90;;;;;;5086605;28;20147;-81
2022/09/06 08:37:18;;;;;;;20.15;18.05;;;21.50;99.90;;;;;;5086884;28;20403;-81
2022/09/06 08:39:44;;;;;;;19.48;17.58;;;21.60;99.90;;;;;;5086374;28;20040;-80
2022/09/06 08:42:11;;;;;;;19.05;17.27;;;21.60;99.90;;;;;;5068588;28;20048;-80
2022/09/06 08:44:49;;;;;;;17.65;16.05;;;21.70;99.90;;;;;;5068340;28;20044;-84
2022/09/06 08:47:17;;;;;;;17.40;15.77;;;21.80;99.90;;;;;;5068014;28;20055;-81
2022/09/06 08:49:45;;;;;;;17.35;15.88;;;21.80;99.90;;;;;;5086946;28;20044;-81
2022/09/06 08:52:21;;;;;;;17.27;15.77;;;22.00;99.90;;;;;;5085661;28;20118;-82
2022/09/06 08:54:52;;;;;;;17.58;15.95;;;22.10;99.90;;;;;;5087317;28;20040;-80
2022/09/06 08:57:20;;;;;;;17.95;16.20;;;22.20;99.90;;;;;;5086840;28;20055;-80
2022/09/06 08:59:47;;;;;;;19.45;17.45;;;22.30;99.90;;;;;;5086270;28;20101;-82
2022/09/06 09:02:19;;;;;;;17.10;15.45;;;22.40;99.90;;;;;;5086615;28;20077;-80
2022/09/06 09:04:55;;;;;;;18.92;15.98;;;22.40;99.90;;;;;;5087055;28;20040;-81
2022/09/06 09:07:59;;;;;;;15.93;14.50;;;22.50;99.90;;;;;;5086558;28;20097;-80
2022/09/06 09:10:40;;;;;;;15.63;14.13;;;22.60;99.90;;;;;;5081939;28;20046;-80
2022/09/06 09:13:14;;;;;;;16.42;14.80;;;22.70;99.90;;;;;;5085619;28;20047;-80
2022/09/06 09:15:40;;;;;;;14.95;12.95;;;22.80;99.90;;;;;;5086403;28;20032;-80
2022/09/06 09:18:06;;;;;;;19.15;12.55;;;22.90;99.90;;;;;;5068551;28;20153;-82
2022/09/06 09:20:32;;;;;;;14.75;13.15;;;22.90;99.90;;;;;;5087050;28;20115;-82
2022/09/06 09:22:58;;;;;;;15.20;13.65;;;23.00;99.90;;;;;;5088127;28;20040;-81
2022/09/06 09:25:24;;;;;;;15.45;13.90;;;23.00;99.90;;;;;;5090629;28;20047;-81
2022/09/06 09:27:59;;;;;;;14.40;12.70;;;23.10;99.90;;;;;;5089589;28;20032;-81
2022/09/06 09:30:26;;;;;;;14.95;12.38;;;23.10;99.90;;;;;;5090553;28;20101;-82
2022/09/06 09:32:53;;;;;;;14.70;13.32;;;23.20;99.90;;;;;;5089850;28;20047;-84
2022/09/06 09:35:31;;;;;;;13.88;12.43;;;23.30;99.90;;;;;;5089311;28;20040;-80
2022/09/06 09:38:09;;;;;;;14.63;13.13;;;23.30;99.90;;;;;;5089950;28;20040;-79
2022/09/06 09:40:48;;;;;;;14.65;12.88;;;23.40;99.90;;;;;;5090363;28;20105;-81
2022/09/06 09:43:23;;;;;;;14.13;12.70;;;23.40;99.90;;;;;;5070795;28;20266;-81
2022/09/06 09:46:23;;;;;;;14.18;12.88;;;23.50;99.90;;;;;;5089829;28;20043;-80
2022/09/06 09:49:07;;;;;;;13.15;11.27;;;23.60;99.90;;;;;;5089059;28;20043;-82
2022/09/06 09:51:35;;;;;;;12.07;10.98;;;23.70;99.90;;;;;;5089949;28;20055;-81
2022/09/06 09:54:04;;;;;;;12.10;10.90;;;23.80;99.90;;;;;;5071004;28;20161;-81
2022/09/06 09:56:37;;;;;;;13.20;11.05;;;23.80;99.90;;;;;;5089272;28;20047;-83
2022/09/06 09:59:18;;;;;;;11.23;10.13;;;23.90;99.90;;;;;;5088918;28;20036;-82
2022/09/06 10:01:43;;;;;;;10.95;9.85;;;24.00;99.90;;;;;;5089705;28;20040;-81
2022/09/06 10:04:15;;;;;;;11.35;9.85;;;24.00;99.90;;;;;;5088458;28;20047;-81
2022/09/06 10:06:41;;;;;;;14.38;10.88;;;24.10;99.90;;;;;;5089696;28;20040;-80
2022/09/06 10:09:18;;;;;;;10.82;9.45;;;24.20;99.90;;;;;;5088972;28;20404;-81
2022/09/06 10:11:58;;;;;;;11.57;9.13;;;24.30;99.90;;;;;;5089566;28;20028;-81
2022/09/06 10:14:30;;;;;;;10.68;8.30;;;24.30;99.90;;;;;;5089825;28;20708;-80
2022/09/06 10:16:56;;;;;;;8.82;7.93;;;24.40;99.90;;;;;;5088202;28;20086;-80
2022/09/06 10:19:34;;;;;;;11.37;8.20;;;24.40;99.90;;;;;;5089289;28;20055;-80
2022/09/06 10:22:11;;;;;;;10.98;7.70;;;24.50;99.90;;;;;;5089097;28;20051;-81
2022/09/06 10:25:06;;;;;;;8.38;7.43;;;24.60;99.90;;;;;;5088659;28;20698;-80
2022/09/06 10:27:34;;;;;;;9.68;6.82;;;24.60;99.90;;;;;;5034472;28;20076;-80
2022/09/06 10:30:08;;;;;;;9.43;8.48;;;24.70;99.90;;;;;;5088940;28;20074;-81
2022/09/06 10:33:08;;;;;;;8.75;7.18;;;24.80;99.90;;;;;;5069478;28;20048;-81
2022/09/06 10:35:36;;;;;;;9.00;6.60;;;24.90;99.90;;;;;;5089172;28;20044;-81
2022/09/06 10:38:34;;;;;;;7.60;6.78;;;24.90;99.90;;;;;;5069198;28;20044;-80
2022/09/06 10:41:41;;;;;;;7.63;5.97;;;25.00;99.90;;;;;;5088528;28;20044;-81
2022/09/06 10:44:36;;;;;;;6.65;5.65;;;25.00;99.90;;;;;;5045454;28;20045;-80
2022/09/06 10:47:12;;;;;;;9.88;6.80;;;25.10;99.90;;;;;;5088450;28;20516;-80
2022/09/06 10:49:41;;;;;;;7.28;5.95;;;25.20;99.90;;;;;;5089471;28;20103;-80
2022/09/06 10:52:12;;;;;;;6.95;6.15;;;25.20;99.90;;;;;;5087431;28;20044;-80
2022/09/06 10:54:40;;;;;;;7.03;6.10;;;25.30;99.90;;;;;;5070723;28;20051;-80
2022/09/06 10:57:30;;;;;;;7.55;6.25;;;25.40;99.90;;;;;;5088474;28;20050;-80
2022/09/06 11:00:03;;;;;;;7.32;6.07;;;25.40;99.90;;;;;;5069307;28;20120;-80
2022/09/06 11:02:47;;;;;;;7.65;5.95;;;25.50;99.90;;;;;;5088773;28;20371;-80
2022/09/06 11:05:20;;;;;;;7.47;5.78;;;25.50;99.90;;;;;;5088461;28;20184;-80
2022/09/06 11:08:01;;;;;;;6.10;5.50;;;25.60;99.80;;;;;;5087756;28;20127;-80
2022/09/06 11:10:30;;;;;;;7.75;6.47;;;25.70;99.50;;;;;;5089889;28;20048;-80
2022/09/06 11:13:05;;;;;;;6.70;6.00;;;25.70;97.70;;;;;;5092336;28;20044;-80
2022/09/06 11:15:43;;;;;;;6.20;5.43;;;25.80;98.70;;;;;;5093403;28;20090;-81
2022/09/06 11:18:25;;;;;;;7.07;5.10;;;25.80;98.30;;;;;;5092692;28;20066;-81
2022/09/06 11:21:04;;;;;;;6.88;5.10;;;25.80;97.20;;;;;;5073634;28;20044;-79
2022/09/06 11:23:33;;;;;;;5.63;4.57;;;25.90;95.60;;;;;;5093567;28;20040;-79
2022/09/06 11:26:05;;;;;;;7.28;4.93;;;25.90;95.80;;;;;;5092600;28;20047;-79
2022/09/06 11:29:08;;;;;;;6.43;5.82;;;26.00;96.60;;;;;;5092642;28;20044;-80
2022/09/06 11:31:54;;;;;;;7.50;4.80;;;26.00;96.00;;;;;;5051056;28;20102;-79
2022/09/06 11:34:25;;;;;;;5.38;4.88;;;26.10;96.20;;;;;;5082029;28;20130;-80
2022/09/06 11:37:14;;;;;;;5.95;4.97;;;26.20;96.90;;;;;;5069367;28;20093;-80
2022/09/06 11:39:42;;;;;;;5.70;4.82;;;26.30;94.40;;;;;;5068444;28;20050;-79
2022/09/06 11:42:28;;;;;;;7.43;5.57;;;26.30;93.90;;;;;;5086635;28;20384;-80
2022/09/06 11:44:57;;;;;;;7.10;5.38;;;26.30;92.90;;;;;;5086283;28;20044;-80
2022/09/06 11:47:42;;;;;;;7.88;5.40;;;26.40;93.30;;;;;;5088154;28;20044;-80
2022/09/06 11:50:20;;;;;;;6.88;5.57;;;26.50;94.30;;;;;;5087701;28;20404;-80
2022/09/06 11:53:04;;;;;;;5.88;5.05;;;26.50;93.40;;;;;;5087295;28;20542;-80
2022/09/06 11:55:50;;;;;;;9.00;6.22;;;26.60;94.70;;;;;;5087301;28;20115;-80
2022/09/06 11:58:16;;;;;;;5.95;5.13;;;26.70;94.40;;;;;;5087203;28;20485;-79
2022/09/06 12:00:42;;;;;;;7.75;5.60;;;26.70;94.20;;;;;;5087630;28;20036;-80
2022/09/06 12:03:09;;;;;;;6.03;5.43;;;26.80;95.30;;;;;;5068355;28;20135;-80
2022/09/06 12:06:15;;;;;;;6.78;5.68;;;26.80;95.40;;;;;;5087352;28;20552;-79
2022/09/06 12:08:42;;;;;;;7.78;5.63;;;26.90;94.00;;;;;;5087570;28;20055;-79
2022/09/06 12:11:20;;;;;;;6.68;5.63;;;27.00;94.30;;;;;;5086565;28;20048;-79
2022/09/06 12:13:45;;;;;;;7.93;5.63;;;27.10;92.90;;;;;;5087273;28;20048;-80
2022/09/06 12:16:12;;;;;;;6.25;5.20;;;27.10;92.60;;;;;;5067653;28;20048;-80
2022/09/06 12:18:47;;;;;;;5.80;5.20;;;27.10;92.30;;;;;;5087766;28;20059;-80
2022/09/06 12:21:31;;;;;;;6.72;5.97;;;27.20;92.40;;;;;;5086963;28;20050;-81
2022/09/06 12:23:57;;;;;;;8.88;6.20;;;27.20;93.30;;;;;;5067850;28;20048;-80
2022/09/06 12:27:06;;;;;;;7.17;5.30;;;27.30;92.60;;;;;;5069217;28;20127;-79
2022/09/06 12:29:32;;;;;;;7.55;6.18;;;27.30;91.70;;;;;;5086938;28;20040;-79
2022/09/06 12:32:00;;;;;;;8.50;6.30;;;27.40;90.50;;;;;;5067127;28;20056;-80
2022/09/06 12:34:30;;;;;;;7.93;5.55;;;27.40;88.10;;;;;;5087304;28;20044;-80
2022/09/06 12:36:59;;;;;;;6.53;5.95;;;27.50;93.10;;;;;;5085999;28;20101;-80
2022/09/06 12:39:26;;;;;;;5.90;5.28;;;27.50;92.70;;;;;;5087194;28;20051;-80
2022/09/06 12:41:59;;;;;;;6.18;5.53;;;27.60;92.50;;;;;;5086243;28;20036;-80
2022/09/06 12:44:35;;;;;;;6.55;5.95;;;27.70;87.60;;;;;;5086371;28;20058;-80
2022/09/06 12:47:25;;;;;;;6.43;4.35;;;27.60;86.50;;;;;;5086737;28;20048;-80
2022/09/06 12:50:13;;;;;;;5.13;4.50;;;27.70;88.80;;;;;;5086513;28;20626;-80
2022/09/06 12:52:58;;;;;;;6.57;4.05;;;27.70;83.60;;;;;;5085950;28;20127;-79
2022/09/06 12:55:33;;;;;;;4.47;4.05;;;27.80;79.40;;;;;;5087188;28;20040;-79
2022/09/06 12:58:08;;;;;;;7.57;4.05;;;27.90;78.40;;;;;;5090955;28;20040;-79
2022/09/06 13:00:50;;;;;;;5.95;4.20;;;27.90;76.70;;;;;;5092248;28;20039;-79
2022/09/06 13:03:34;;;;;;;9.35;4.72;;;28.00;73.50;;;;;;5092310;28;20040;-79